sensor_id;sensor_type;location;lat;lon;timestamp;P1;durP1;ratioP1;P2;durP2;ratioP2
72127;SDS011;60000;51.030;7.024;2023-02-01T00:01:22;16.52;;;5.00;;
72127;SDS011;60000;51.030;7.024;2023-02-01T00:03:47;14.03;;;4.03;;
72127;SDS011;60000;51.030;7.024;2023-02-01T00:06:12;13.87;;;4.50;;
72127;SDS011;60000;51.030;7.024;2023-02-01T00:08:38;18.57;;;4.67;;
72127;SDS011;60000;51.030;7.024;2023-02-01T00:11:05;13.57;;;4.25;;
72127;SDS011;60000;51.030;7.024;2023-02-01T00:13:33;16.30;;;4.68;;
72127;SDS011;60000;51.030;7.024;2023-02-01T00:19:05;12.93;;;4.20;;
72127;SDS011;60000;51.030;7.024;2023-02-01T00:21:36;15.10;;;5.18;;
72127;SDS011;60000;51.030;7.024;2023-02-01T00:24:02;15.02;;;4.07;;
72127;SDS011;60000;51.030;7.024;2023-02-01T00:26:35;14.17;;;4.60;;
72127;SDS011;60000;51.030;7.024;2023-02-01T00:29:03;14.05;;;5.10;;
72127;SDS011;60000;51.030;7.024;2023-02-01T00:31:30;15.75;;;4.78;;
72127;SDS011;60000;51.030;7.024;2023-02-01T00:33:56;20.27;;;4.95;;
72127;SDS011;60000;51.030;7.024;2023-02-01T00:36:21;17.23;;;4.93;;
72127;SDS011;60000;51.030;7.024;2023-02-01T00:38:47;15.67;;;4.47;;
72127;SDS011;60000;51.030;7.024;2023-02-01T00:41:13;17.17;;;5.03;;
72127;SDS011;60000;51.030;7.024;2023-02-01T00:43:43;18.05;;;5.10;;
72127;SDS011;60000;51.030;7.024;2023-02-01T00:46:10;18.75;;;4.60;;
72127;SDS011;60000;51.030;7.024;2023-02-01T00:48:36;13.25;;;4.50;;
72127;SDS011;60000;51.030;7.024;2023-02-01T00:51:07;13.83;;;4.43;;
72127;SDS011;60000;51.030;7.024;2023-02-01T00:53:34;18.33;;;4.10;;
72127;SDS011;60000;51.030;7.024;2023-02-01T00:56:00;24.25;;;5.00;;
72127;SDS011;60000;51.030;7.024;2023-02-01T00:58:26;12.98;;;3.78;;
72127;SDS011;60000;51.030;7.024;2023-02-01T01:03:34;13.73;;;3.65;;
72127;SDS011;60000;51.030;7.024;2023-02-01T01:06:03;14.40;;;3.78;;
72127;SDS011;60000;51.030;7.024;2023-02-01T01:08:30;15.13;;;3.67;;
72127;SDS011;60000;51.030;7.024;2023-02-01T01:10:55;11.30;;;3.17;;
72127;SDS011;60000;51.030;7.024;2023-02-01T01:13:21;12.53;;;3.10;;
72127;SDS011;60000;51.030;7.024;2023-02-01T01:15:46;13.70;;;3.30;;
72127;SDS011;60000;51.030;7.024;2023-02-01T01:18:11;11.83;;;3.10;;
72127;SDS011;60000;51.030;7.024;2023-02-01T01:20:37;14.73;;;2.90;;
72127;SDS011;60000;51.030;7.024;2023-02-01T01:23:04;14.90;;;4.25;;
72127;SDS011;60000;51.030;7.024;2023-02-01T01:25:31;13.20;;;3.28;;
72127;SDS011;60000;51.030;7.024;2023-02-01T01:27:57;14.17;;;2.87;;
72127;SDS011;60000;51.030;7.024;2023-02-01T01:30:23;15.05;;;2.70;;
72127;SDS011;60000;51.030;7.024;2023-02-01T01:32:48;13.20;;;2.97;;
72127;SDS011;60000;51.030;7.024;2023-02-01T01:35:13;12.03;;;2.37;;
72127;SDS011;60000;51.030;7.024;2023-02-01T01:37:39;13.67;;;3.00;;
72127;SDS011;60000;51.030;7.024;2023-02-01T01:40:04;16.25;;;2.67;;
72127;SDS011;60000;51.030;7.024;2023-02-01T01:42:36;14.75;;;2.53;;
72127;SDS011;60000;51.030;7.024;2023-02-01T01:47:37;8.73;;;2.08;;
72127;SDS011;60000;51.030;7.024;2023-02-01T01:50:12;18.25;;;2.70;;
72127;SDS011;60000;51.030;7.024;2023-02-01T01:52:41;12.47;;;2.53;;
72127;SDS011;60000;51.030;7.024;2023-02-01T01:55:11;18.13;;;3.45;;
72127;SDS011;60000;51.030;7.024;2023-02-01T01:57:40;13.50;;;2.40;;
72127;SDS011;60000;51.030;7.024;2023-02-01T02:00:13;14.70;;;2.47;;
72127;SDS011;60000;51.030;7.024;2023-02-01T02:02:41;15.43;;;2.45;;
72127;SDS011;60000;51.030;7.024;2023-02-01T02:05:08;13.80;;;2.90;;
72127;SDS011;60000;51.030;7.024;2023-02-01T02:07:36;11.07;;;2.35;;
72127;SDS011;60000;51.030;7.024;2023-02-01T02:10:05;15.32;;;2.72;;
72127;SDS011;60000;51.030;7.024;2023-02-01T02:12:35;11.35;;;2.83;;
72127;SDS011;60000;51.030;7.024;2023-02-01T02:15:04;17.48;;;2.60;;
72127;SDS011;60000;51.030;7.024;2023-02-01T02:28:37;13.73;;;3.00;;
72127;SDS011;60000;51.030;7.024;2023-02-01T02:31:46;16.20;;;3.00;;
72127;SDS011;60000;51.030;7.024;2023-02-01T02:34:40;18.17;;;3.40;;
72127;SDS011;60000;51.030;7.024;2023-02-01T02:40:11;11.70;;;2.60;;
72127;SDS011;60000;51.030;7.024;2023-02-01T02:42:52;13.93;;;2.70;;
72127;SDS011;60000;51.030;7.024;2023-02-01T02:51:25;12.57;;;2.50;;
72127;SDS011;60000;51.030;7.024;2023-02-01T02:54:15;12.90;;;2.70;;
72127;SDS011;60000;51.030;7.024;2023-02-01T02:57:03;15.48;;;3.03;;
72127;SDS011;60000;51.030;7.024;2023-02-01T02:59:51;13.88;;;2.80;;
72127;SDS011;60000;51.030;7.024;2023-02-01T03:02:36;13.13;;;3.10;;
72127;SDS011;60000;51.030;7.024;2023-02-01T03:05:21;12.13;;;2.97;;
72127;SDS011;60000;51.030;7.024;2023-02-01T03:07:49;11.33;;;2.97;;
72127;SDS011;60000;51.030;7.024;2023-02-01T03:10:30;13.82;;;3.13;;
72127;SDS011;60000;51.030;7.024;2023-02-01T03:13:08;14.32;;;2.80;;
72127;SDS011;60000;51.030;7.024;2023-02-01T03:19:29;11.50;;;3.30;;
72127;SDS011;60000;51.030;7.024;2023-02-01T03:22:07;15.10;;;3.30;;
72127;SDS011;60000;51.030;7.024;2023-02-01T03:27:48;13.65;;;3.53;;
72127;SDS011;60000;51.030;7.024;2023-02-01T03:30:18;11.60;;;3.10;;
72127;SDS011;60000;51.030;7.024;2023-02-01T03:32:47;10.85;;;2.85;;
72127;SDS011;60000;51.030;7.024;2023-02-01T03:40:53;14.00;;;4.57;;
72127;SDS011;60000;51.030;7.024;2023-02-01T03:43:46;16.58;;;3.47;;
72127;SDS011;60000;51.030;7.024;2023-02-01T03:46:21;15.90;;;3.65;;
72127;SDS011;60000;51.030;7.024;2023-02-01T03:48:51;13.93;;;3.23;;
72127;SDS011;60000;51.030;7.024;2023-02-01T03:51:17;14.10;;;3.50;;
72127;SDS011;60000;51.030;7.024;2023-02-01T03:53:45;13.15;;;3.65;;
72127;SDS011;60000;51.030;7.024;2023-02-01T03:56:13;13.60;;;3.90;;
72127;SDS011;60000;51.030;7.024;2023-02-01T03:58:40;23.45;;;4.38;;
72127;SDS011;60000;51.030;7.024;2023-02-01T04:01:05;18.13;;;3.20;;
72127;SDS011;60000;51.030;7.024;2023-02-01T04:03:31;14.10;;;3.53;;
72127;SDS011;60000;51.030;7.024;2023-02-01T04:05:57;16.83;;;4.03;;
72127;SDS011;60000;51.030;7.024;2023-02-01T04:08:23;14.20;;;3.20;;
72127;SDS011;60000;51.030;7.024;2023-02-01T04:10:49;13.60;;;2.97;;
72127;SDS011;60000;51.030;7.024;2023-02-01T04:13:14;10.07;;;2.83;;
72127;SDS011;60000;51.030;7.024;2023-02-01T04:15:39;17.50;;;3.70;;
72127;SDS011;60000;51.030;7.024;2023-02-01T04:18:05;15.07;;;3.43;;
72127;SDS011;60000;51.030;7.024;2023-02-01T04:20:30;17.53;;;3.60;;
72127;SDS011;60000;51.030;7.024;2023-02-01T04:22:56;14.00;;;2.90;;
72127;SDS011;60000;51.030;7.024;2023-02-01T04:25:22;17.88;;;3.20;;
72127;SDS011;60000;51.030;7.024;2023-02-01T04:27:47;12.80;;;2.90;;
72127;SDS011;60000;51.030;7.024;2023-02-01T04:30:13;12.50;;;2.97;;
72127;SDS011;60000;51.030;7.024;2023-02-01T04:32:39;11.82;;;2.83;;
72127;SDS011;60000;51.030;7.024;2023-02-01T04:35:05;11.03;;;2.77;;
72127;SDS011;60000;51.030;7.024;2023-02-01T04:37:31;11.60;;;2.90;;
72127;SDS011;60000;51.030;7.024;2023-02-01T04:39:57;14.50;;;3.50;;
72127;SDS011;60000;51.030;7.024;2023-02-01T04:42:22;18.20;;;3.60;;
72127;SDS011;60000;51.030;7.024;2023-02-01T04:44:47;17.30;;;3.63;;
72127;SDS011;60000;51.030;7.024;2023-02-01T04:47:13;14.63;;;2.97;;
72127;SDS011;60000;51.030;7.024;2023-02-01T04:49:39;17.00;;;3.15;;
72127;SDS011;60000;51.030;7.024;2023-02-01T04:52:05;15.80;;;3.20;;
72127;SDS011;60000;51.030;7.024;2023-02-01T04:54:30;15.07;;;3.67;;
72127;SDS011;60000;51.030;7.024;2023-02-01T04:56:55;14.40;;;3.20;;
72127;SDS011;60000;51.030;7.024;2023-02-01T04:59:21;17.47;;;3.40;;
72127;SDS011;60000;51.030;7.024;2023-02-01T05:01:47;16.42;;;2.60;;
72127;SDS011;60000;51.030;7.024;2023-02-01T05:04:12;16.43;;;3.23;;
72127;SDS011;60000;51.030;7.024;2023-02-01T05:06:37;12.97;;;2.60;;
72127;SDS011;60000;51.030;7.024;2023-02-01T05:09:03;15.80;;;2.43;;
72127;SDS011;60000;51.030;7.024;2023-02-01T05:11:28;15.00;;;3.33;;
72127;SDS011;60000;51.030;7.024;2023-02-01T05:14:12;21.80;;;3.30;;
72127;SDS011;60000;51.030;7.024;2023-02-01T05:16:37;9.67;;;1.93;;
72127;SDS011;60000;51.030;7.024;2023-02-01T05:19:03;15.97;;;2.90;;
72127;SDS011;60000;51.030;7.024;2023-02-01T05:21:28;12.32;;;2.70;;
72127;SDS011;60000;51.030;7.024;2023-02-01T05:23:53;9.77;;;1.83;;
72127;SDS011;60000;51.030;7.024;2023-02-01T05:26:34;11.13;;;3.00;;
72127;SDS011;60000;51.030;7.024;2023-02-01T05:28:59;10.43;;;2.55;;
72127;SDS011;60000;51.030;7.024;2023-02-01T05:31:25;17.80;;;3.13;;
72127;SDS011;60000;51.030;7.024;2023-02-01T05:33:50;20.47;;;2.93;;
72127;SDS011;60000;51.030;7.024;2023-02-01T05:36:16;14.50;;;2.53;;
72127;SDS011;60000;51.030;7.024;2023-02-01T05:38:41;13.83;;;2.07;;
72127;SDS011;60000;51.030;7.024;2023-02-01T05:41:06;13.05;;;1.98;;
72127;SDS011;60000;51.030;7.024;2023-02-01T05:43:32;12.07;;;2.47;;
72127;SDS011;60000;51.030;7.024;2023-02-01T05:45:57;15.73;;;2.27;;
72127;SDS011;60000;51.030;7.024;2023-02-01T05:48:24;15.07;;;2.30;;
72127;SDS011;60000;51.030;7.024;2023-02-01T05:50:49;15.90;;;2.27;;
72127;SDS011;60000;51.030;7.024;2023-02-01T05:53:14;11.67;;;2.53;;
72127;SDS011;60000;51.030;7.024;2023-02-01T05:55:40;16.47;;;2.47;;
72127;SDS011;60000;51.030;7.024;2023-02-01T05:58:06;10.32;;;1.92;;
72127;SDS011;60000;51.030;7.024;2023-02-01T06:00:31;16.93;;;2.10;;
72127;SDS011;60000;51.030;7.024;2023-02-01T06:02:57;11.63;;;2.93;;
72127;SDS011;60000;51.030;7.024;2023-02-01T06:05:22;14.82;;;2.20;;
72127;SDS011;60000;51.030;7.024;2023-02-01T06:07:48;22.13;;;2.50;;
72127;SDS011;60000;51.030;7.024;2023-02-01T06:10:14;17.10;;;2.53;;
72127;SDS011;60000;51.030;7.024;2023-02-01T06:12:41;11.65;;;2.00;;
72127;SDS011;60000;51.030;7.024;2023-02-01T06:15:06;14.82;;;2.58;;
72127;SDS011;60000;51.030;7.024;2023-02-01T06:17:32;11.33;;;2.30;;
72127;SDS011;60000;51.030;7.024;2023-02-01T06:19:57;13.70;;;2.40;;
72127;SDS011;60000;51.030;7.024;2023-02-01T06:22:23;14.83;;;2.60;;
72127;SDS011;60000;51.030;7.024;2023-02-01T06:24:48;12.90;;;2.35;;
72127;SDS011;60000;51.030;7.024;2023-02-01T06:27:14;10.52;;;2.03;;
72127;SDS011;60000;51.030;7.024;2023-02-01T06:29:39;18.07;;;2.10;;
72127;SDS011;60000;51.030;7.024;2023-02-01T06:32:05;10.50;;;1.43;;
72127;SDS011;60000;51.030;7.024;2023-02-01T06:34:30;14.43;;;2.63;;
72127;SDS011;60000;51.030;7.024;2023-02-01T06:36:55;13.53;;;2.53;;
72127;SDS011;60000;51.030;7.024;2023-02-01T06:39:21;11.27;;;2.70;;
72127;SDS011;60000;51.030;7.024;2023-02-01T06:41:46;15.53;;;2.87;;
72127;SDS011;60000;51.030;7.024;2023-02-01T06:44:12;12.52;;;2.50;;
72127;SDS011;60000;51.030;7.024;2023-02-01T06:46:38;14.27;;;2.63;;
72127;SDS011;60000;51.030;7.024;2023-02-01T06:49:03;11.57;;;2.00;;
72127;SDS011;60000;51.030;7.024;2023-02-01T06:51:28;14.53;;;2.40;;
72127;SDS011;60000;51.030;7.024;2023-02-01T06:53:54;20.17;;;2.47;;
72127;SDS011;60000;51.030;7.024;2023-02-01T06:56:20;10.73;;;2.05;;
72127;SDS011;60000;51.030;7.024;2023-02-01T06:58:46;12.93;;;2.80;;
72127;SDS011;60000;51.030;7.024;2023-02-01T07:01:12;13.45;;;1.90;;
72127;SDS011;60000;51.030;7.024;2023-02-01T07:03:38;15.30;;;3.20;;
72127;SDS011;60000;51.030;7.024;2023-02-01T07:06:04;15.20;;;2.97;;
72127;SDS011;60000;51.030;7.024;2023-02-01T07:08:30;20.17;;;2.75;;
72127;SDS011;60000;51.030;7.024;2023-02-01T07:11:01;15.50;;;3.00;;
72127;SDS011;60000;51.030;7.024;2023-02-01T07:13:31;11.65;;;2.78;;
72127;SDS011;60000;51.030;7.024;2023-02-01T07:16:00;15.50;;;2.27;;
72127;SDS011;60000;51.030;7.024;2023-02-01T07:18:29;16.23;;;3.00;;
72127;SDS011;60000;51.030;7.024;2023-02-01T07:20:56;16.75;;;3.33;;
72127;SDS011;60000;51.030;7.024;2023-02-01T07:23:22;18.52;;;3.38;;
72127;SDS011;60000;51.030;7.024;2023-02-01T07:25:48;20.30;;;3.53;;
72127;SDS011;60000;51.030;7.024;2023-02-01T07:28:13;14.05;;;2.88;;
72127;SDS011;60000;51.030;7.024;2023-02-01T07:30:39;17.07;;;2.60;;
72127;SDS011;60000;51.030;7.024;2023-02-01T07:33:04;16.43;;;2.77;;
72127;SDS011;60000;51.030;7.024;2023-02-01T07:35:29;13.75;;;2.47;;
72127;SDS011;60000;51.030;7.024;2023-02-01T07:37:56;14.38;;;2.20;;
72127;SDS011;60000;51.030;7.024;2023-02-01T07:40:22;11.03;;;2.17;;
72127;SDS011;60000;51.030;7.024;2023-02-01T07:42:53;17.30;;;2.58;;
72127;SDS011;60000;51.030;7.024;2023-02-01T07:45:22;20.38;;;3.17;;
72127;SDS011;60000;51.030;7.024;2023-02-01T07:47:48;20.27;;;3.15;;
72127;SDS011;60000;51.030;7.024;2023-02-01T07:50:13;18.77;;;4.33;;
72127;SDS011;60000;51.030;7.024;2023-02-01T07:52:39;16.02;;;3.47;;
72127;SDS011;60000;51.030;7.024;2023-02-01T07:55:05;16.52;;;2.88;;
72127;SDS011;60000;51.030;7.024;2023-02-01T07:57:31;13.95;;;3.00;;
72127;SDS011;60000;51.030;7.024;2023-02-01T07:59:57;11.90;;;2.10;;
72127;SDS011;60000;51.030;7.024;2023-02-01T08:02:40;12.05;;;2.53;;
72127;SDS011;60000;51.030;7.024;2023-02-01T08:05:06;15.53;;;2.50;;
72127;SDS011;60000;51.030;7.024;2023-02-01T08:07:32;13.02;;;2.55;;
72127;SDS011;60000;51.030;7.024;2023-02-01T08:09:57;14.97;;;2.73;;
72127;SDS011;60000;51.030;7.024;2023-02-01T08:12:22;13.30;;;3.37;;
72127;SDS011;60000;51.030;7.024;2023-02-01T08:14:48;14.47;;;3.00;;
72127;SDS011;60000;51.030;7.024;2023-02-01T08:17:13;15.47;;;2.87;;
72127;SDS011;60000;51.030;7.024;2023-02-01T08:19:38;15.53;;;3.67;;
72127;SDS011;60000;51.030;7.024;2023-02-01T08:22:04;15.73;;;2.60;;
72127;SDS011;60000;51.030;7.024;2023-02-01T08:24:32;11.85;;;2.47;;
72127;SDS011;60000;51.030;7.024;2023-02-01T08:26:58;16.55;;;3.30;;
72127;SDS011;60000;51.030;7.024;2023-02-01T08:29:23;18.77;;;3.10;;
72127;SDS011;60000;51.030;7.024;2023-02-01T08:31:48;21.07;;;3.70;;
72127;SDS011;60000;51.030;7.024;2023-02-01T08:34:13;16.47;;;3.53;;
72127;SDS011;60000;51.030;7.024;2023-02-01T08:36:39;19.73;;;3.00;;
72127;SDS011;60000;51.030;7.024;2023-02-01T08:39:05;16.17;;;3.00;;
72127;SDS011;60000;51.030;7.024;2023-02-01T08:41:33;16.65;;;3.17;;
72127;SDS011;60000;51.030;7.024;2023-02-01T08:43:59;18.92;;;3.45;;
72127;SDS011;60000;51.030;7.024;2023-02-01T08:46:24;21.42;;;4.03;;
72127;SDS011;60000;51.030;7.024;2023-02-01T08:48:50;15.77;;;3.30;;
72127;SDS011;60000;51.030;7.024;2023-02-01T08:51:17;15.00;;;3.03;;
72127;SDS011;60000;51.030;7.024;2023-02-01T08:53:43;15.35;;;3.40;;
72127;SDS011;60000;51.030;7.024;2023-02-01T08:56:10;13.80;;;2.77;;
72127;SDS011;60000;51.030;7.024;2023-02-01T08:58:36;18.90;;;3.00;;
72127;SDS011;60000;51.030;7.024;2023-02-01T09:01:02;13.40;;;2.87;;
72127;SDS011;60000;51.030;7.024;2023-02-01T09:03:29;12.57;;;2.38;;
72127;SDS011;60000;51.030;7.024;2023-02-01T09:05:59;17.07;;;2.00;;
72127;SDS011;60000;51.030;7.024;2023-02-01T09:08:28;15.65;;;2.45;;
72127;SDS011;60000;51.030;7.024;2023-02-01T09:10:57;14.60;;;2.60;;
72127;SDS011;60000;51.030;7.024;2023-02-01T09:13:24;11.75;;;2.42;;
72127;SDS011;60000;51.030;7.024;2023-02-01T09:15:50;16.43;;;2.67;;
72127;SDS011;60000;51.030;7.024;2023-02-01T09:18:16;17.85;;;2.03;;
72127;SDS011;60000;51.030;7.024;2023-02-01T09:20:41;13.50;;;3.10;;
72127;SDS011;60000;51.030;7.024;2023-02-01T09:23:06;19.30;;;3.57;;
72127;SDS011;60000;51.030;7.024;2023-02-01T09:25:32;14.70;;;2.67;;
72127;SDS011;60000;51.030;7.024;2023-02-01T09:27:57;10.47;;;2.33;;
72127;SDS011;60000;51.030;7.024;2023-02-01T09:30:23;12.50;;;2.10;;
72127;SDS011;60000;51.030;7.024;2023-02-01T09:32:48;13.00;;;2.07;;
72127;SDS011;60000;51.030;7.024;2023-02-01T09:35:14;15.15;;;2.45;;
72127;SDS011;60000;51.030;7.024;2023-02-01T09:37:39;12.93;;;2.63;;
72127;SDS011;60000;51.030;7.024;2023-02-01T09:40:04;13.13;;;2.30;;
72127;SDS011;60000;51.030;7.024;2023-02-01T09:42:43;17.90;;;3.15;;
72127;SDS011;60000;51.030;7.024;2023-02-01T09:48:15;13.65;;;2.60;;
72127;SDS011;60000;51.030;7.024;2023-02-01T09:50:47;16.15;;;2.20;;
72127;SDS011;60000;51.030;7.024;2023-02-01T09:53:18;12.55;;;2.28;;
72127;SDS011;60000;51.030;7.024;2023-02-01T09:56:05;15.02;;;2.70;;
72127;SDS011;60000;51.030;7.024;2023-02-01T09:58:55;13.63;;;3.20;;
72127;SDS011;60000;51.030;7.024;2023-02-01T10:01:29;12.35;;;2.50;;
72127;SDS011;60000;51.030;7.024;2023-02-01T10:04:03;15.77;;;3.72;;
72127;SDS011;60000;51.030;7.024;2023-02-01T10:09:39;9.52;;;2.75;;
72127;SDS011;60000;51.030;7.024;2023-02-01T10:23:42;12.38;;;2.90;;
72127;SDS011;60000;51.030;7.024;2023-02-01T10:26:18;20.97;;;3.80;;
72127;SDS011;60000;51.030;7.024;2023-02-01T10:28:58;17.95;;;3.17;;
72127;SDS011;60000;51.030;7.024;2023-02-01T10:31:30;19.10;;;3.35;;
72127;SDS011;60000;51.030;7.024;2023-02-01T10:34:38;18.17;;;2.95;;
72127;SDS011;60000;51.030;7.024;2023-02-01T10:37:18;15.45;;;2.72;;
72127;SDS011;60000;51.030;7.024;2023-02-01T10:39:48;12.13;;;2.53;;
72127;SDS011;60000;51.030;7.024;2023-02-01T10:42:15;18.92;;;3.38;;
72127;SDS011;60000;51.030;7.024;2023-02-01T10:44:43;17.30;;;3.10;;
72127;SDS011;60000;51.030;7.024;2023-02-01T10:47:10;15.88;;;2.70;;
72127;SDS011;60000;51.030;7.024;2023-02-01T10:50:19;14.77;;;2.93;;
72127;SDS011;60000;51.030;7.024;2023-02-01T10:52:45;15.90;;;3.55;;
72127;SDS011;60000;51.030;7.024;2023-02-01T10:58:06;14.82;;;2.30;;
72127;SDS011;60000;51.030;7.024;2023-02-01T11:00:41;12.50;;;2.42;;
72127;SDS011;60000;51.030;7.024;2023-02-01T11:05:58;10.43;;;1.83;;
72127;SDS011;60000;51.030;7.024;2023-02-01T11:08:23;16.25;;;2.83;;
72127;SDS011;60000;51.030;7.024;2023-02-01T11:10:56;12.68;;;2.33;;
72127;SDS011;60000;51.030;7.024;2023-02-01T11:13:33;12.40;;;3.15;;
72127;SDS011;60000;51.030;7.024;2023-02-01T11:16:03;9.33;;;1.90;;
72127;SDS011;60000;51.030;7.024;2023-02-01T11:18:37;10.00;;;3.00;;
72127;SDS011;60000;51.030;7.024;2023-02-01T11:21:03;13.45;;;2.65;;
72127;SDS011;60000;51.030;7.024;2023-02-01T11:23:30;17.77;;;3.42;;
72127;SDS011;60000;51.030;7.024;2023-02-01T11:26:02;16.95;;;3.00;;
72127;SDS011;60000;51.030;7.024;2023-02-01T11:28:35;16.30;;;2.80;;
72127;SDS011;60000;51.030;7.024;2023-02-01T11:31:06;12.82;;;2.63;;
72127;SDS011;60000;51.030;7.024;2023-02-01T11:33:36;12.98;;;3.28;;
72127;SDS011;60000;51.030;7.024;2023-02-01T11:36:07;15.52;;;3.28;;
72127;SDS011;60000;51.030;7.024;2023-02-01T11:38:37;18.98;;;3.40;;
72127;SDS011;60000;51.030;7.024;2023-02-01T11:43:49;11.88;;;2.72;;
72127;SDS011;60000;51.030;7.024;2023-02-01T11:46:19;12.63;;;3.00;;
72127;SDS011;60000;51.030;7.024;2023-02-01T11:48:50;18.67;;;3.63;;
72127;SDS011;60000;51.030;7.024;2023-02-01T11:56:36;14.73;;;3.23;;
72127;SDS011;60000;51.030;7.024;2023-02-01T12:01:50;15.32;;;3.47;;
72127;SDS011;60000;51.030;7.024;2023-02-01T12:04:21;18.50;;;3.67;;
72127;SDS011;60000;51.030;7.024;2023-02-01T12:07:14;14.13;;;3.50;;
72127;SDS011;60000;51.030;7.024;2023-02-01T12:12:45;19.77;;;4.45;;
72127;SDS011;60000;51.030;7.024;2023-02-01T12:15:36;16.92;;;4.10;;
72127;SDS011;60000;51.030;7.024;2023-02-01T12:23:57;12.50;;;2.33;;
72127;SDS011;60000;51.030;7.024;2023-02-01T12:29:09;15.57;;;2.72;;
72127;SDS011;60000;51.030;7.024;2023-02-01T12:35:13;16.92;;;2.78;;
72127;SDS011;60000;51.030;7.024;2023-02-01T12:41:02;17.88;;;2.83;;
72127;SDS011;60000;51.030;7.024;2023-02-01T12:43:42;20.70;;;3.28;;
72127;SDS011;60000;51.030;7.024;2023-02-01T12:46:24;13.30;;;2.50;;
72127;SDS011;60000;51.030;7.024;2023-02-01T12:49:01;13.50;;;3.17;;
72127;SDS011;60000;51.030;7.024;2023-02-01T12:51:36;14.73;;;3.25;;
72127;SDS011;60000;51.030;7.024;2023-02-01T12:54:12;16.25;;;2.88;;
72127;SDS011;60000;51.030;7.024;2023-02-01T12:56:54;18.40;;;3.15;;
72127;SDS011;60000;51.030;7.024;2023-02-01T12:59:27;11.10;;;2.50;;
72127;SDS011;60000;51.030;7.024;2023-02-01T13:07:42;14.05;;;3.13;;
72127;SDS011;60000;51.030;7.024;2023-02-01T13:10:32;14.98;;;2.88;;
72127;SDS011;60000;51.030;7.024;2023-02-01T13:15:46;17.88;;;3.60;;
72127;SDS011;60000;51.030;7.024;2023-02-01T13:18:18;15.63;;;3.28;;
72127;SDS011;60000;51.030;7.024;2023-02-01T13:21:29;17.88;;;4.50;;
72127;SDS011;60000;51.030;7.024;2023-02-01T13:23:38;16.63;;;3.85;;
72127;SDS011;60000;51.030;7.024;2023-02-01T13:26:05;16.77;;;3.70;;
72127;SDS011;60000;51.030;7.024;2023-02-01T13:28:47;11.43;;;3.13;;
72127;SDS011;60000;51.030;7.024;2023-02-01T13:37:34;16.00;;;3.60;;
72127;SDS011;60000;51.030;7.024;2023-02-01T13:43:22;12.02;;;2.83;;
72127;SDS011;60000;51.030;7.024;2023-02-01T13:45:52;14.77;;;3.20;;
72127;SDS011;60000;51.030;7.024;2023-02-01T13:48:23;16.50;;;2.85;;
72127;SDS011;60000;51.030;7.024;2023-02-01T13:50:53;10.00;;;2.43;;
72127;SDS011;60000;51.030;7.024;2023-02-01T13:53:23;12.13;;;2.88;;
72127;SDS011;60000;51.030;7.024;2023-02-01T13:55:56;13.82;;;4.32;;
72127;SDS011;60000;51.030;7.024;2023-02-01T13:58:35;10.60;;;2.42;;
72127;SDS011;60000;51.030;7.024;2023-02-01T14:03:47;10.53;;;1.97;;
72127;SDS011;60000;51.030;7.024;2023-02-01T14:06:38;12.70;;;2.22;;
72127;SDS011;60000;51.030;7.024;2023-02-01T14:16:42;12.65;;;2.53;;
72127;SDS011;60000;51.030;7.024;2023-02-01T14:19:30;9.55;;;2.10;;
72127;SDS011;60000;51.030;7.024;2023-02-01T14:24:48;12.25;;;2.20;;
72127;SDS011;60000;51.030;7.024;2023-02-01T14:27:18;12.85;;;2.80;;
72127;SDS011;60000;51.030;7.024;2023-02-01T14:29:53;11.20;;;2.50;;
72127;SDS011;60000;51.030;7.024;2023-02-01T14:32:25;13.30;;;2.42;;
72127;SDS011;60000;51.030;7.024;2023-02-01T14:34:56;12.53;;;2.00;;
72127;SDS011;60000;51.030;7.024;2023-02-01T14:37:27;14.85;;;2.00;;
72127;SDS011;60000;51.030;7.024;2023-02-01T14:39:59;12.48;;;1.77;;
72127;SDS011;60000;51.030;7.024;2023-02-01T14:44:56;11.90;;;2.08;;
72127;SDS011;60000;51.030;7.024;2023-02-01T14:47:53;7.33;;;1.57;;
72127;SDS011;60000;51.030;7.024;2023-02-01T14:50:25;8.63;;;1.92;;
72127;SDS011;60000;51.030;7.024;2023-02-01T14:58:31;12.45;;;2.15;;
72127;SDS011;60000;51.030;7.024;2023-02-01T15:00:58;8.73;;;1.67;;
72127;SDS011;60000;51.030;7.024;2023-02-01T15:06:03;9.15;;;1.48;;
72127;SDS011;60000;51.030;7.024;2023-02-01T15:08:32;10.52;;;2.08;;
72127;SDS011;60000;51.030;7.024;2023-02-01T15:11:01;8.48;;;1.50;;
72127;SDS011;60000;51.030;7.024;2023-02-01T15:13:34;8.57;;;1.77;;
72127;SDS011;60000;51.030;7.024;2023-02-01T15:16:00;9.65;;;1.80;;
72127;SDS011;60000;51.030;7.024;2023-02-01T15:18:25;11.07;;;2.00;;
72127;SDS011;60000;51.030;7.024;2023-02-01T15:20:57;14.77;;;2.10;;
72127;SDS011;60000;51.030;7.024;2023-02-01T15:23:24;10.65;;;2.03;;
72127;SDS011;60000;51.030;7.024;2023-02-01T15:25:50;10.13;;;1.93;;
72127;SDS011;60000;51.030;7.024;2023-02-01T15:28:15;12.60;;;2.70;;
72127;SDS011;60000;51.030;7.024;2023-02-01T15:30:51;14.63;;;1.83;;
72127;SDS011;60000;51.030;7.024;2023-02-01T15:33:25;9.25;;;1.42;;
72127;SDS011;60000;51.030;7.024;2023-02-01T15:35:53;8.48;;;1.45;;
72127;SDS011;60000;51.030;7.024;2023-02-01T15:43:19;8.33;;;1.43;;
72127;SDS011;60000;51.030;7.024;2023-02-01T15:45:45;10.63;;;1.60;;
72127;SDS011;60000;51.030;7.024;2023-02-01T15:48:11;7.73;;;1.43;;
72127;SDS011;60000;51.030;7.024;2023-02-01T15:50:44;10.15;;;1.65;;
72127;SDS011;60000;51.030;7.024;2023-02-01T15:53:13;11.20;;;1.50;;
72127;SDS011;60000;51.030;7.024;2023-02-01T15:55:45;9.05;;;1.52;;
72127;SDS011;60000;51.030;7.024;2023-02-01T15:58:22;10.10;;;1.70;;
72127;SDS011;60000;51.030;7.024;2023-02-01T16:00:50;15.73;;;2.30;;
72127;SDS011;60000;51.030;7.024;2023-02-01T16:03:25;16.58;;;2.05;;
72127;SDS011;60000;51.030;7.024;2023-02-01T16:06:33;10.68;;;2.05;;
72127;SDS011;60000;51.030;7.024;2023-02-01T16:08:52;13.43;;;2.00;;
72127;SDS011;60000;51.030;7.024;2023-02-01T16:12:03;11.73;;;2.20;;
72127;SDS011;60000;51.030;7.024;2023-02-01T16:14:19;13.60;;;2.63;;
72127;SDS011;60000;51.030;7.024;2023-02-01T16:16:45;12.07;;;1.73;;
72127;SDS011;60000;51.030;7.024;2023-02-01T16:19:10;11.30;;;2.17;;
72127;SDS011;60000;51.030;7.024;2023-02-01T16:21:35;13.07;;;1.93;;
72127;SDS011;60000;51.030;7.024;2023-02-01T16:24:01;13.33;;;2.10;;
72127;SDS011;60000;51.030;7.024;2023-02-01T16:26:29;9.40;;;1.63;;
72127;SDS011;60000;51.030;7.024;2023-02-01T16:28:58;14.00;;;2.60;;
72127;SDS011;60000;51.030;7.024;2023-02-01T16:31:27;13.10;;;3.03;;
72127;SDS011;60000;51.030;7.024;2023-02-01T16:33:54;14.80;;;1.83;;
72127;SDS011;60000;51.030;7.024;2023-02-01T16:36:20;13.05;;;2.58;;
72127;SDS011;60000;51.030;7.024;2023-02-01T16:38:46;14.73;;;1.90;;
72127;SDS011;60000;51.030;7.024;2023-02-01T16:41:14;12.63;;;2.10;;
72127;SDS011;60000;51.030;7.024;2023-02-01T16:43:41;12.32;;;2.10;;
72127;SDS011;60000;51.030;7.024;2023-02-01T16:46:10;14.07;;;2.10;;
72127;SDS011;60000;51.030;7.024;2023-02-01T16:48:40;12.13;;;1.90;;
72127;SDS011;60000;51.030;7.024;2023-02-01T16:51:10;11.15;;;2.40;;
72127;SDS011;60000;51.030;7.024;2023-02-01T16:53:38;9.60;;;1.58;;
72127;SDS011;60000;51.030;7.024;2023-02-01T16:56:13;11.03;;;2.43;;
72127;SDS011;60000;51.030;7.024;2023-02-01T16:58:43;9.90;;;2.30;;
72127;SDS011;60000;51.030;7.024;2023-02-01T17:01:10;7.03;;;1.93;;
72127;SDS011;60000;51.030;7.024;2023-02-01T17:03:40;13.00;;;2.22;;
72127;SDS011;60000;51.030;7.024;2023-02-01T17:06:06;15.63;;;3.10;;
72127;SDS011;60000;51.030;7.024;2023-02-01T17:08:35;15.27;;;2.90;;
72127;SDS011;60000;51.030;7.024;2023-02-01T17:11:02;13.05;;;2.70;;